createdAt,value
2023-08-31T00:01:43.894Z,2.00
2023-08-31T00:04:16.135Z,1.65
2023-08-31T00:06:46.313Z,2.58
2023-08-31T00:09:15.093Z,1.63
2023-08-31T00:11:42.131Z,1.45
2023-08-31T00:14:09.181Z,1.40
2023-08-31T00:16:36.158Z,2.53
2023-08-31T00:19:04.982Z,1.88
2023-08-31T00:21:31.983Z,1.77
2023-08-31T00:23:59.150Z,2.45
2023-08-31T00:26:27.477Z,2.78
2023-08-31T00:28:58.322Z,1.75
2023-08-31T00:31:25.717Z,2.38
2023-08-31T00:33:52.808Z,2.35
2023-08-31T00:36:19.909Z,1.95
2023-08-31T00:38:47.844Z,1.40
2023-08-31T00:41:14.848Z,1.20
2023-08-31T00:43:41.945Z,1.50
2023-08-31T00:46:09.012Z,1.75
2023-08-31T00:48:36.061Z,2.13
2023-08-31T00:51:03.864Z,2.72
2023-08-31T00:53:31.566Z,1.77
2023-08-31T00:55:59.818Z,1.50
2023-08-31T00:58:27.498Z,1.48
2023-08-31T01:01:11.667Z,2.60
2023-08-31T01:03:54.044Z,7.20
2023-08-31T01:06:50.500Z,4.03
2023-08-31T01:09:40.862Z,2.40
2023-08-31T01:12:22.262Z,2.13
2023-08-31T01:15:00.611Z,2.28
2023-08-31T01:17:31.077Z,3.05
2023-08-31T01:20:00.681Z,1.48
2023-08-31T01:22:34.166Z,2.30
2023-08-31T01:25:05.493Z,3.05
2023-08-31T01:27:33.391Z,2.78
2023-08-31T01:30:00.697Z,2.50
2023-08-31T01:32:28.088Z,2.97
2023-08-31T01:34:58.650Z,4.13
2023-08-31T01:37:38.351Z,3.70
2023-08-31T01:40:33.400Z,3.75
2023-08-31T01:43:02.946Z,4.25
2023-08-31T01:45:31.858Z,3.88
2023-08-31T01:47:58.980Z,4.15
2023-08-31T01:50:25.930Z,3.05
2023-08-31T01:52:54.568Z,6.95
2023-08-31T01:55:22.776Z,8.18
2023-08-31T01:57:49.914Z,6.68
2023-08-31T02:00:21.334Z,6.57
2023-08-31T02:02:48.810Z,6.13
2023-08-31T02:05:16.158Z,4.75
2023-08-31T02:07:43.245Z,7.72
2023-08-31T02:10:10.588Z,4.10
2023-08-31T02:12:38.933Z,6.80
2023-08-31T02:15:07.625Z,6.90
2023-08-31T02:17:38.382Z,6.70
2023-08-31T02:20:07.764Z,8.32
2023-08-31T02:22:35.938Z,3.90
2023-08-31T02:25:03.468Z,8.10
2023-08-31T02:27:30.482Z,5.57
2023-08-31T02:29:57.541Z,11.02
2023-08-31T02:32:24.498Z,9.80
2023-08-31T02:34:51.901Z,6.35
2023-08-31T02:37:20.204Z,8.38
2023-08-31T02:39:47.303Z,8.50
2023-08-31T02:42:15.735Z,6.22
2023-08-31T02:44:42.751Z,8.73
2023-08-31T02:47:09.736Z,5.53
2023-08-31T02:49:36.799Z,8.10
2023-08-31T02:52:05.021Z,10.27
2023-08-31T02:54:32.150Z,9.90
2023-08-31T02:56:59.095Z,8.20
2023-08-31T02:59:26.308Z,11.07
2023-08-31T03:01:54.667Z,6.00
2023-08-31T03:04:21.644Z,6.55
2023-08-31T03:06:51.803Z,6.18
2023-08-31T03:09:18.817Z,8.02
2023-08-31T03:11:45.803Z,5.53
2023-08-31T03:14:12.933Z,5.55
2023-08-31T03:16:40.035Z,10.43
2023-08-31T03:19:07.297Z,9.32
2023-08-31T03:21:34.398Z,7.15
2023-08-31T03:24:02.999Z,8.95
2023-08-31T03:26:30.223Z,12.20
2023-08-31T03:28:57.570Z,6.70
2023-08-31T03:31:25.137Z,7.28
2023-08-31T03:33:52.277Z,8.77
2023-08-31T03:36:19.271Z,7.53
2023-08-31T03:38:46.192Z,9.57
2023-08-31T03:41:14.013Z,5.60
2023-08-31T03:43:41.023Z,7.40
2023-08-31T03:46:08.105Z,7.28
2023-08-31T03:48:36.222Z,6.15
2023-08-31T03:51:03.171Z,5.32
2023-08-31T03:53:30.159Z,9.40
2023-08-31T03:56:00.923Z,6.13
2023-08-31T03:58:28.012Z,5.78
2023-08-31T04:00:55.842Z,8.45
2023-08-31T04:03:23.632Z,5.30
2023-08-31T04:05:55.919Z,9.80
2023-08-31T04:08:22.875Z,4.25
2023-08-31T04:10:49.888Z,6.90
2023-08-31T04:13:16.897Z,4.97
2023-08-31T04:15:43.855Z,11.20
2023-08-31T04:18:10.892Z,7.40
2023-08-31T04:20:37.821Z,7.80
2023-08-31T04:23:04.899Z,5.78
2023-08-31T04:25:32.743Z,9.68
2023-08-31T04:27:59.902Z,7.15
2023-08-31T04:30:27.874Z,4.88
2023-08-31T04:32:55.368Z,9.68
2023-08-31T04:35:23.544Z,5.40
2023-08-31T04:37:50.547Z,6.32
2023-08-31T04:40:17.546Z,6.25
2023-08-31T04:42:45.266Z,5.03
2023-08-31T04:45:13.344Z,6.80
2023-08-31T04:47:40.370Z,7.70
2023-08-31T04:50:08.758Z,6.68
2023-08-31T04:52:36.035Z,6.75
2023-08-31T04:55:10.419Z,7.25
2023-08-31T04:57:37.758Z,7.15
2023-08-31T05:00:06.054Z,6.07
2023-08-31T05:02:37.848Z,10.02
2023-08-31T05:05:06.276Z,10.50
2023-08-31T05:07:33.350Z,5.65
2023-08-31T05:10:00.287Z,7.07
2023-08-31T05:12:27.288Z,6.75
2023-08-31T05:14:54.370Z,5.43
2023-08-31T05:17:22.478Z,8.68
2023-08-31T05:19:49.665Z,8.65
2023-08-31T05:22:16.548Z,6.68
2023-08-31T05:24:43.484Z,5.63
2023-08-31T05:27:10.479Z,5.50
2023-08-31T05:29:37.469Z,6.03
2023-08-31T05:32:04.801Z,5.80
2023-08-31T05:34:36.032Z,9.75
2023-08-31T05:37:05.929Z,6.47
2023-08-31T05:39:34.248Z,6.20
2023-08-31T05:42:03.441Z,8.90
2023-08-31T05:44:30.866Z,5.50
2023-08-31T05:46:57.903Z,4.85
2023-08-31T05:49:24.818Z,6.22
2023-08-31T05:51:53.010Z,8.90
2023-08-31T05:54:20.150Z,7.55
2023-08-31T05:56:47.940Z,5.85
2023-08-31T05:59:15.011Z,9.35
2023-08-31T06:01:44.682Z,7.65
2023-08-31T06:04:11.952Z,3.72
2023-08-31T06:06:39.251Z,7.95
2023-08-31T06:09:08.090Z,7.03
2023-08-31T06:11:36.186Z,5.35
2023-08-31T06:14:05.650Z,9.15
2023-08-31T06:16:35.758Z,6.35
2023-08-31T06:19:03.861Z,7.43
2023-08-31T06:21:30.744Z,6.15
2023-08-31T06:23:57.723Z,8.48
2023-08-31T06:26:24.718Z,8.50
2023-08-31T06:28:52.214Z,7.32
2023-08-31T06:31:21.098Z,5.57
2023-08-31T06:33:48.090Z,8.45
2023-08-31T06:36:15.028Z,6.45
2023-08-31T06:38:42.073Z,6.30
2023-08-31T06:41:10.392Z,10.75
2023-08-31T06:43:37.310Z,6.22
2023-08-31T06:46:21.806Z,10.75
2023-08-31T06:48:50.609Z,8.15
2023-08-31T06:51:17.763Z,11.10
2023-08-31T06:53:45.200Z,12.18
2023-08-31T06:56:12.221Z,7.28
2023-08-31T06:58:39.278Z,10.93
2023-08-31T07:01:10.076Z,12.02
2023-08-31T07:03:37.387Z,6.47
2023-08-31T07:06:04.465Z,8.88
2023-08-31T07:08:31.920Z,11.27
2023-08-31T07:10:58.855Z,9.52
2023-08-31T07:13:25.816Z,10.35
2023-08-31T07:15:52.990Z,9.77
2023-08-31T07:18:20.046Z,11.73
2023-08-31T07:20:47.822Z,13.15
2023-08-31T07:23:15.290Z,12.82
2023-08-31T07:25:43.387Z,9.95
2023-08-31T07:28:13.013Z,10.70
2023-08-31T07:30:40.186Z,17.98
2023-08-31T07:33:24.295Z,15.75
2023-08-31T07:35:55.845Z,10.90
2023-08-31T07:38:22.753Z,12.77
2023-08-31T07:40:50.228Z,15.35
2023-08-31T07:43:17.298Z,12.82
2023-08-31T07:45:44.245Z,9.80
2023-08-31T07:48:11.625Z,11.25
2023-08-31T07:50:42.821Z,13.98
2023-08-31T07:53:10.300Z,11.90
2023-08-31T07:55:37.540Z,10.23
2023-08-31T07:58:04.684Z,6.80
2023-08-31T08:00:31.781Z,12.23
2023-08-31T08:02:59.014Z,8.98
2023-08-31T08:05:28.214Z,12.32
2023-08-31T08:07:55.156Z,22.58
2023-08-31T08:10:22.120Z,7.45
2023-08-31T08:12:49.078Z,15.00
2023-08-31T08:15:16.059Z,9.73
2023-08-31T08:17:43.830Z,8.68
2023-08-31T08:20:11.470Z,15.85
2023-08-31T08:23:29.686Z,10.65
2023-08-31T08:25:56.708Z,8.50
2023-08-31T08:28:23.657Z,12.70
2023-08-31T08:30:51.385Z,9.52
2023-08-31T08:33:19.238Z,13.75
2023-08-31T08:35:46.234Z,12.27
2023-08-31T08:38:13.348Z,13.93
2023-08-31T08:40:42.454Z,11.07
2023-08-31T08:43:09.859Z,18.58
2023-08-31T08:45:39.807Z,8.73
2023-08-31T08:48:08.632Z,14.52
2023-08-31T08:50:37.530Z,13.23
2023-08-31T08:53:05.494Z,9.40
2023-08-31T08:55:33.333Z,13.13
2023-08-31T08:58:02.453Z,10.98
2023-08-31T09:00:30.337Z,13.95
2023-08-31T09:02:57.708Z,8.68
2023-08-31T09:05:25.180Z,11.50
2023-08-31T09:08:14.968Z,11.35
2023-08-31T09:10:43.598Z,14.10
2023-08-31T09:13:12.691Z,12.95
2023-08-31T09:15:44.956Z,11.10
2023-08-31T09:18:34.104Z,9.38
2023-08-31T09:21:01.996Z,9.25
2023-08-31T09:23:35.491Z,8.57
2023-08-31T09:26:02.473Z,12.27
2023-08-31T09:28:30.469Z,6.85
2023-08-31T09:31:09.395Z,7.70
2023-08-31T09:33:37.879Z,9.57
2023-08-31T09:36:08.477Z,7.15
2023-08-31T09:38:43.784Z,12.43
2023-08-31T09:41:10.825Z,9.25
2023-08-31T09:43:37.788Z,12.35
2023-08-31T09:46:08.024Z,8.85
2023-08-31T09:48:38.916Z,13.38
2023-08-31T09:51:06.183Z,12.45
2023-08-31T09:53:35.696Z,9.73
2023-08-31T09:56:04.008Z,9.38
2023-08-31T09:58:32.344Z,8.48
2023-08-31T10:01:00.852Z,8.57
2023-08-31T10:03:28.542Z,10.70
2023-08-31T10:05:57.165Z,8.82
2023-08-31T10:08:32.343Z,12.65
2023-08-31T10:11:04.738Z,9.85
2023-08-31T10:13:36.317Z,14.80
2023-08-31T10:16:06.287Z,10.02
2023-08-31T10:18:38.949Z,9.93
2023-08-31T10:21:06.449Z,11.32
2023-08-31T10:23:33.742Z,12.38
2023-08-31T10:26:01.938Z,10.27
2023-08-31T10:28:30.341Z,9.30
2023-08-31T10:31:08.521Z,5.75
2023-08-31T10:33:36.089Z,7.40
2023-08-31T10:36:03.164Z,8.27
2023-08-31T10:38:36.575Z,9.65
2023-08-31T10:41:09.684Z,9.00
2023-08-31T10:43:59.164Z,8.57
2023-08-31T10:46:33.522Z,8.05
2023-08-31T10:49:18.616Z,4.45
2023-08-31T10:51:57.138Z,7.32
2023-08-31T10:54:26.989Z,6.72
2023-08-31T10:57:09.526Z,7.20
2023-08-31T10:59:53.574Z,9.48
2023-08-31T11:02:43.278Z,6.35
2023-08-31T11:05:18.823Z,8.45
2023-08-31T11:07:51.492Z,8.15
2023-08-31T11:10:20.964Z,6.32
2023-08-31T11:12:50.104Z,8.23
2023-08-31T11:15:19.498Z,7.50
2023-08-31T11:17:47.633Z,9.52
2023-08-31T11:20:18.232Z,6.50
2023-08-31T11:22:47.858Z,7.97
2023-08-31T11:25:19.247Z,9.40
2023-08-31T11:28:01.224Z,6.68
2023-08-31T11:30:29.777Z,4.18
2023-08-31T11:33:03.658Z,6.20
2023-08-31T11:35:37.309Z,6.82
2023-08-31T11:38:05.463Z,6.88
2023-08-31T11:40:32.436Z,5.88
2023-08-31T11:43:01.582Z,5.35
2023-08-31T11:45:29.308Z,4.90
2023-08-31T11:47:57.022Z,6.32
2023-08-31T11:50:25.652Z,4.00
2023-08-31T11:52:54.590Z,7.07
2023-08-31T11:55:24.267Z,7.53
2023-08-31T11:57:55.970Z,9.48
2023-08-31T12:00:24.077Z,5.53
2023-08-31T12:02:58.437Z,7.72
2023-08-31T12:05:26.403Z,9.73
2023-08-31T12:07:58.006Z,7.03
2023-08-31T12:10:28.501Z,7.18
2023-08-31T12:13:08.589Z,9.50
2023-08-31T12:15:35.969Z,5.75
2023-08-31T12:18:14.108Z,8.48
2023-08-31T12:21:07.554Z,10.63
2023-08-31T12:23:34.772Z,5.25
2023-08-31T12:26:02.454Z,5.15
2023-08-31T12:28:29.456Z,8.68
2023-08-31T12:30:58.781Z,7.60
2023-08-31T12:33:26.162Z,5.32
2023-08-31T12:35:53.203Z,3.92
2023-08-31T12:38:21.193Z,5.38
2023-08-31T12:40:48.268Z,5.40
2023-08-31T12:43:15.567Z,6.13
2023-08-31T12:45:42.874Z,8.27
2023-08-31T12:48:09.987Z,5.28
2023-08-31T12:50:37.017Z,5.72
2023-08-31T12:53:04.557Z,3.63
2023-08-31T12:55:31.932Z,9.52
2023-08-31T12:57:59.107Z,7.00
2023-08-31T13:00:26.544Z,5.10
2023-08-31T13:02:53.569Z,5.57
2023-08-31T13:05:21.786Z,6.07
2023-08-31T13:07:48.855Z,4.25
2023-08-31T13:10:16.113Z,5.70
2023-08-31T13:12:43.075Z,4.55
2023-08-31T13:15:10.659Z,4.70
2023-08-31T13:17:38.852Z,4.47
2023-08-31T13:20:06.511Z,5.70
2023-08-31T13:22:33.456Z,6.00
2023-08-31T13:25:03.162Z,4.07
2023-08-31T13:27:31.848Z,6.70
2023-08-31T13:29:58.874Z,5.38
2023-08-31T13:32:26.734Z,5.55
2023-08-31T13:34:56.554Z,6.47
2023-08-31T13:37:24.600Z,5.53
2023-08-31T13:39:54.936Z,5.55
2023-08-31T13:42:22.461Z,5.65
2023-08-31T13:44:49.393Z,4.13
2023-08-31T13:47:16.360Z,2.72
2023-08-31T13:49:46.395Z,4.13
2023-08-31T13:52:13.623Z,4.60
2023-08-31T13:54:40.544Z,6.63
2023-08-31T13:57:09.018Z,6.40
2023-08-31T13:59:37.635Z,4.43
2023-08-31T14:02:05.393Z,6.90
2023-08-31T14:04:32.266Z,6.88
2023-08-31T14:06:59.309Z,6.22
2023-08-31T14:09:26.312Z,6.03
2023-08-31T14:11:53.415Z,5.53
2023-08-31T14:14:20.445Z,6.57
2023-08-31T14:16:48.538Z,6.97
2023-08-31T14:19:15.525Z,7.07
2023-08-31T14:21:42.505Z,4.22
2023-08-31T14:24:09.577Z,4.50
2023-08-31T14:26:37.409Z,4.32
2023-08-31T14:29:04.968Z,2.47
2023-08-31T14:31:32.043Z,7.03
2023-08-31T14:33:59.119Z,6.40
2023-08-31T14:36:27.250Z,4.85
2023-08-31T14:38:54.174Z,6.28
2023-08-31T14:41:21.152Z,5.82
2023-08-31T14:43:49.419Z,6.97
2023-08-31T14:46:16.472Z,6.68
2023-08-31T14:48:43.457Z,5.68
2023-08-31T14:51:11.223Z,4.65
2023-08-31T14:53:38.204Z,6.93
2023-08-31T14:56:05.243Z,5.57
2023-08-31T14:58:32.251Z,6.65
2023-08-31T15:00:59.196Z,7.30
2023-08-31T15:03:26.745Z,5.82
2023-08-31T15:05:53.777Z,6.40
2023-08-31T15:08:36.203Z,7.55
2023-08-31T15:11:07.188Z,7.78
2023-08-31T15:13:34.127Z,6.03
2023-08-31T15:16:01.224Z,5.57
2023-08-31T15:18:30.020Z,7.38
2023-08-31T15:20:57.077Z,7.38
2023-08-31T15:23:24.556Z,6.53
2023-08-31T15:25:51.492Z,4.72
2023-08-31T15:28:18.457Z,6.50
2023-08-31T15:30:45.422Z,6.60
2023-08-31T15:33:14.750Z,7.68
2023-08-31T15:35:43.447Z,6.13
2023-08-31T15:38:11.174Z,6.22
2023-08-31T15:40:38.429Z,7.75
2023-08-31T15:43:05.587Z,7.40
2023-08-31T15:45:32.740Z,8.48
2023-08-31T15:47:59.693Z,6.13
2023-08-31T15:50:26.680Z,8.13
2023-08-31T15:52:54.527Z,5.15
2023-08-31T15:55:21.421Z,5.38
2023-08-31T15:57:48.495Z,7.53
2023-08-31T16:00:15.640Z,7.40
2023-08-31T16:02:42.677Z,8.07
2023-08-31T16:05:11.240Z,9.40
2023-08-31T16:07:39.591Z,8.70
2023-08-31T16:10:07.352Z,7.30
2023-08-31T16:12:35.422Z,6.05
2023-08-31T16:15:02.478Z,9.10
2023-08-31T16:17:29.395Z,8.73
2023-08-31T16:19:57.086Z,7.00
2023-08-31T16:22:24.471Z,4.82
2023-08-31T16:24:51.527Z,10.68
2023-08-31T16:27:18.462Z,11.82
2023-08-31T16:29:49.434Z,9.90
2023-08-31T16:32:20.198Z,10.98
2023-08-31T16:34:47.229Z,8.15
2023-08-31T16:37:14.175Z,9.88
2023-08-31T16:39:41.187Z,8.90
2023-08-31T16:42:09.561Z,8.60
2023-08-31T16:44:36.553Z,8.98
2023-08-31T16:47:05.084Z,10.05
2023-08-31T16:49:32.309Z,6.55
2023-08-31T16:51:59.287Z,6.28
2023-08-31T16:54:27.045Z,5.28
2023-08-31T16:56:56.518Z,7.53
2023-08-31T16:59:24.381Z,7.05
2023-08-31T17:01:53.503Z,5.65
2023-08-31T17:04:20.491Z,5.93
2023-08-31T17:06:49.095Z,10.60
2023-08-31T17:09:16.003Z,7.10
2023-08-31T17:11:43.036Z,6.65
2023-08-31T17:14:11.025Z,5.55
2023-08-31T17:16:38.068Z,5.78
2023-08-31T17:19:04.994Z,9.60
2023-08-31T17:21:31.919Z,5.18
2023-08-31T17:23:58.883Z,10.48
2023-08-31T17:26:26.860Z,5.85
2023-08-31T17:28:53.823Z,4.65
2023-08-31T17:31:20.956Z,9.60
2023-08-31T17:33:51.218Z,7.95
2023-08-31T17:36:21.026Z,9.98
2023-08-31T17:38:48.002Z,15.65
2023-08-31T17:41:14.994Z,12.13
2023-08-31T17:43:45.897Z,11.18
2023-08-31T17:46:12.912Z,10.15
2023-08-31T17:48:41.201Z,10.40
2023-08-31T17:51:09.069Z,9.85
2023-08-31T17:53:37.446Z,13.27
2023-08-31T17:56:04.533Z,9.25
2023-08-31T17:58:31.555Z,9.20
2023-08-31T18:00:58.538Z,10.25
2023-08-31T18:03:25.978Z,11.07
2023-08-31T18:05:53.470Z,11.23
2023-08-31T18:08:29.355Z,9.27
2023-08-31T18:10:56.497Z,12.05
2023-08-31T18:13:23.431Z,9.35
2023-08-31T18:15:54.013Z,9.05
2023-08-31T18:18:21.540Z,11.23
2023-08-31T18:20:48.728Z,8.23
2023-08-31T18:23:41.874Z,12.65
2023-08-31T18:26:08.904Z,7.75
2023-08-31T18:28:35.931Z,10.77
2023-08-31T18:31:04.227Z,7.38
2023-08-31T18:33:32.635Z,9.00
2023-08-31T18:36:02.692Z,8.40
2023-08-31T18:38:30.758Z,11.70
2023-08-31T18:40:58.177Z,11.10
2023-08-31T18:43:28.530Z,8.52
2023-08-31T18:45:58.178Z,12.70
2023-08-31T18:48:25.351Z,7.53
2023-08-31T18:50:59.976Z,9.85
2023-08-31T18:53:28.372Z,8.82
2023-08-31T18:56:05.934Z,10.48
2023-08-31T18:58:33.557Z,9.30
2023-08-31T19:01:04.384Z,20.25
2023-08-31T19:03:31.713Z,27.02
2023-08-31T19:05:59.294Z,23.30
2023-08-31T19:08:26.541Z,14.27
2023-08-31T19:10:53.562Z,12.75
2023-08-31T19:13:20.961Z,7.97
2023-08-31T19:15:49.361Z,20.67
2023-08-31T19:18:16.956Z,28.92
2023-08-31T19:20:44.490Z,12.05
2023-08-31T19:23:11.501Z,10.75
2023-08-31T19:25:38.493Z,9.02
2023-08-31T19:28:07.100Z,9.95
2023-08-31T19:30:35.051Z,9.52
2023-08-31T19:33:03.100Z,8.63
2023-08-31T19:35:57.042Z,21.10
2023-08-31T19:38:18.867Z,22.30
2023-08-31T19:40:48.823Z,19.77
2023-08-31T19:43:18.971Z,13.35
2023-08-31T19:45:47.168Z,18.63
2023-08-31T19:48:15.644Z,30.17
2023-08-31T19:50:43.276Z,20.83
2023-08-31T19:53:10.633Z,18.63
2023-08-31T19:55:38.890Z,18.35
2023-08-31T19:58:06.921Z,14.05
2023-08-31T20:00:33.954Z,15.25
2023-08-31T20:03:01.076Z,14.07
2023-08-31T20:05:28.631Z,12.50
2023-08-31T20:07:56.270Z,13.45
2023-08-31T20:10:23.662Z,10.25
2023-08-31T20:12:51.548Z,8.98
2023-08-31T20:15:18.865Z,7.88
2023-08-31T20:17:45.879Z,6.88
2023-08-31T20:20:15.438Z,9.27
2023-08-31T20:22:42.628Z,8.43
2023-08-31T20:25:10.657Z,10.50
2023-08-31T20:27:38.912Z,7.35
2023-08-31T20:30:07.903Z,11.77
2023-08-31T20:32:35.529Z,6.88
2023-08-31T20:35:02.889Z,6.57
2023-08-31T20:37:33.199Z,6.75
2023-08-31T20:40:00.234Z,7.50
2023-08-31T20:42:27.343Z,8.07
2023-08-31T20:44:55.596Z,8.05
2023-08-31T20:47:22.612Z,7.70
2023-08-31T20:49:49.679Z,8.57
2023-08-31T20:52:18.698Z,7.22
2023-08-31T20:54:49.274Z,6.60
2023-08-31T20:57:16.271Z,6.72
2023-08-31T20:59:43.372Z,7.28
2023-08-31T21:02:10.797Z,8.13
2023-08-31T21:04:37.833Z,8.25
2023-08-31T21:07:05.282Z,7.03
2023-08-31T21:09:35.174Z,8.45
2023-08-31T21:12:03.660Z,7.53
2023-08-31T21:14:30.596Z,7.32
2023-08-31T21:16:57.700Z,6.90
2023-08-31T21:19:26.012Z,9.18
2023-08-31T21:21:53.207Z,10.45
2023-08-31T21:24:20.156Z,6.35
2023-08-31T21:26:47.054Z,6.75
2023-08-31T21:29:13.984Z,8.77
2023-08-31T21:31:40.907Z,7.47
2023-08-31T21:34:07.870Z,8.95
2023-08-31T21:36:34.875Z,6.75
2023-08-31T21:39:01.848Z,7.43
2023-08-31T21:41:28.938Z,6.28
2023-08-31T21:43:56.179Z,5.05
2023-08-31T21:46:23.429Z,9.32
2023-08-31T21:48:50.873Z,4.97
2023-08-31T21:51:17.797Z,6.13
2023-08-31T21:53:44.818Z,5.93
2023-08-31T21:56:12.561Z,5.55
2023-08-31T21:58:39.578Z,4.78
2023-08-31T22:01:06.792Z,6.13
2023-08-31T22:03:34.467Z,4.45
2023-08-31T22:06:08.888Z,4.22
2023-08-31T22:08:37.673Z,3.45
2023-08-31T22:11:07.316Z,6.22
2023-08-31T22:13:35.824Z,7.68
2023-08-31T22:16:12.246Z,5.35
2023-08-31T22:18:50.386Z,4.65
2023-08-31T22:21:18.351Z,5.63
2023-08-31T22:23:45.425Z,3.08
2023-08-31T22:26:12.469Z,7.50
2023-08-31T22:28:39.481Z,4.88
2023-08-31T22:31:06.607Z,3.95
2023-08-31T22:33:33.570Z,4.32
2023-08-31T22:36:05.237Z,5.13
2023-08-31T22:38:32.561Z,6.22
2023-08-31T22:40:59.555Z,4.60
2023-08-31T22:43:27.017Z,5.03
2023-08-31T22:46:00.731Z,5.68
2023-08-31T22:48:29.333Z,5.85
2023-08-31T22:51:06.878Z,7.75
2023-08-31T22:53:34.949Z,4.80
2023-08-31T22:56:04.590Z,6.68
2023-08-31T22:58:31.860Z,7.78
2023-08-31T23:00:59.723Z,6.05
2023-08-31T23:03:26.950Z,6.38
2023-08-31T23:05:54.012Z,12.43
2023-08-31T23:08:21.607Z,6.63
2023-08-31T23:10:49.211Z,5.88
2023-08-31T23:13:16.232Z,6.40
2023-08-31T23:15:44.830Z,4.80
2023-08-31T23:18:12.713Z,8.45
2023-08-31T23:20:40.362Z,6.82
2023-08-31T23:23:07.631Z,9.27
2023-08-31T23:25:34.759Z,7.00
2023-08-31T23:28:01.913Z,7.03
2023-08-31T23:30:29.071Z,7.82
2023-08-31T23:32:58.305Z,6.88
2023-08-31T23:35:25.354Z,9.75
2023-08-31T23:37:52.940Z,5.13
2023-08-31T23:40:19.982Z,4.95
2023-08-31T23:42:47.252Z,5.35
2023-08-31T23:45:14.467Z,6.13
2023-08-31T23:47:41.486Z,7.32
2023-08-31T23:50:09.066Z,8.75
2023-08-31T23:52:36.232Z,9.32
2023-08-31T23:55:03.547Z,6.75
2023-08-31T23:57:30.545Z,6.95
2023-08-31T23:59:58.323Z,7.43
